Time;durP1;ratioP1;P1;durP2;ratioP2;P2;SDS_P1;SDS_P2;PMS_P1;PMS_P2;Temp;Humidity;BMP_temperature;BMP_pressure;BME280_temperature;BME280_humidity;BME280_pressure;Samples;Min_cycle;Max_cycle;Signal;HPM_P1;HPM_P2
2022/06/24 00:02:58;;;;;;;28.70;8.10;;;24.30;99.90;;;;;;5051758;28;20051;-68
2022/06/24 00:06:07;;;;;;;32.15;7.10;;;24.30;99.90;;;;;;5051793;28;20048;-68
2022/06/24 00:09:13;;;;;;;30.73;8.27;;;24.30;99.90;;;;;;5051753;28;20383;-69
2022/06/24 00:12:19;;;;;;;33.25;8.50;;;24.30;99.90;;;;;;5051499;28;20040;-68
2022/06/24 00:15:30;;;;;;;25.42;7.13;;;24.30;99.90;;;;;;5051878;28;20051;-68
2022/06/24 00:18:34;;;;;;;29.23;7.63;;;24.40;99.90;;;;;;5051236;28;20048;-69
2022/06/24 00:21:38;;;;;;;28.00;7.90;;;24.40;99.90;;;;;;5051477;28;20048;-68
2022/06/24 00:24:42;;;;;;;26.92;7.55;;;24.40;99.90;;;;;;5051215;28;20047;-68
2022/06/24 00:28:05;;;;;;;23.73;8.07;;;24.40;99.90;;;;;;5050754;28;20043;-68
2022/06/24 00:31:09;;;;;;;26.08;7.55;;;24.40;99.90;;;;;;5050198;28;20040;-69
2022/06/24 00:34:23;;;;;;;23.23;7.65;;;24.40;99.90;;;;;;5051094;28;20503;-68
2022/06/24 00:37:30;;;;;;;25.63;7.82;;;24.40;99.90;;;;;;5051188;28;20047;-68
2022/06/24 00:40:35;;;;;;;26.05;7.25;;;24.40;99.90;;;;;;5051057;28;20071;-68
2022/06/24 00:43:49;;;;;;;21.50;7.63;;;24.40;99.90;;;;;;5051306;28;20494;-68
2022/06/24 00:46:57;;;;;;;24.08;7.80;;;24.40;99.90;;;;;;5050830;28;20636;-68
2022/06/24 00:50:11;;;;;;;20.08;7.40;;;24.40;99.90;;;;;;5050652;28;20036;-69
2022/06/24 00:53:15;;;;;;;22.15;6.80;;;24.30;99.90;;;;;;5051104;28;20407;-68
2022/06/24 00:56:24;;;;;;;21.02;7.05;;;24.20;99.90;;;;;;5050218;28;20158;-69
2022/06/24 00:59:32;;;;;;;16.70;6.80;;;24.10;99.90;;;;;;5050913;28;20040;-68
2022/06/24 01:02:36;;;;;;;28.70;7.45;;;24.10;99.90;;;;;;5050377;28;20044;-68
2022/06/24 01:05:42;;;;;;;23.00;7.28;;;24.10;99.90;;;;;;5050803;28;20048;-68
2022/06/24 01:08:45;;;;;;;27.25;8.35;;;24.10;99.90;;;;;;5050604;28;20044;-69
2022/06/24 01:11:49;;;;;;;26.45;7.63;;;24.00;99.90;;;;;;5049870;28;20052;-69
2022/06/24 01:14:53;;;;;;;20.10;7.93;;;24.00;99.90;;;;;;5050735;28;20052;-68
2022/06/24 01:17:57;;;;;;;21.00;8.20;;;23.90;99.90;;;;;;5050290;28;20044;-68
2022/06/24 01:21:01;;;;;;;14.18;6.70;;;23.90;99.90;;;;;;5050591;28;20048;-68
2022/06/24 01:24:15;;;;;;;26.92;8.50;;;23.90;99.90;;;;;;5050522;28;20068;-69
2022/06/24 01:27:19;;;;;;;21.50;7.32;;;23.80;99.90;;;;;;5049195;28;20487;-69
2022/06/24 01:30:23;;;;;;;19.42;8.40;;;23.70;99.90;;;;;;5050342;28;20048;-69
2022/06/24 01:33:27;;;;;;;22.75;8.30;;;23.70;99.90;;;;;;5049424;28;20387;-69
2022/06/24 01:36:32;;;;;;;26.70;8.07;;;23.70;99.90;;;;;;5050067;28;20036;-68
2022/06/24 01:39:36;;;;;;;25.65;7.97;;;23.70;99.90;;;;;;5050172;28;20052;-68
2022/06/24 01:42:40;;;;;;;26.27;8.13;;;23.70;99.90;;;;;;5049938;28;20052;-68
2022/06/24 01:45:44;;;;;;;22.83;7.88;;;23.80;99.90;;;;;;5050042;28;20036;-68
2022/06/24 01:48:48;;;;;;;25.27;8.27;;;23.70;99.90;;;;;;5050167;28;20056;-68
2022/06/24 01:51:55;;;;;;;20.92;7.18;;;23.70;99.90;;;;;;5049755;28;20450;-68
2022/06/24 01:54:58;;;;;;;28.40;8.18;;;23.60;99.90;;;;;;5050236;28;20059;-68
2022/06/24 01:58:03;;;;;;;21.30;7.97;;;23.60;99.90;;;;;;5049428;28;20059;-68
2022/06/24 02:01:07;;;;;;;26.73;8.52;;;23.60;99.90;;;;;;5050206;28;20056;-69
2022/06/24 02:04:12;;;;;;;27.23;8.43;;;23.60;99.90;;;;;;5049960;28;20215;-68
2022/06/24 02:07:16;;;;;;;32.35;8.55;;;23.60;99.90;;;;;;5049538;28;20518;-68
2022/06/24 02:13:43;;;;;;;29.95;8.02;;;23.50;99.90;;;;;;5049870;28;20040;-68
2022/06/24 02:16:47;;;;;;;35.33;8.85;;;23.50;99.90;;;;;;5049091;28;20052;-68
2022/06/24 02:19:51;;;;;;;25.20;8.63;;;23.50;99.90;;;;;;5050049;28;20055;-68
2022/06/24 02:22:55;;;;;;;27.30;8.73;;;23.40;99.90;;;;;;5049924;28;20407;-68
2022/06/24 02:25:59;;;;;;;29.38;9.38;;;23.40;99.90;;;;;;5053482;28;20055;-67
2022/06/24 02:29:04;;;;;;;29.45;8.40;;;23.30;99.90;;;;;;5053699;28;20052;-67
2022/06/24 02:32:08;;;;;;;29.30;9.30;;;23.20;99.90;;;;;;5053521;28;20047;-68
2022/06/24 02:35:12;;;;;;;30.83;8.90;;;23.10;99.90;;;;;;5053483;28;20396;-68
2022/06/24 02:38:17;;;;;;;25.88;8.57;;;23.00;99.90;;;;;;5053093;28;20059;-68
2022/06/24 02:41:21;;;;;;;31.85;9.15;;;22.90;99.90;;;;;;5053392;28;20071;-69
2022/06/24 02:44:25;;;;;;;27.92;8.98;;;22.70;99.90;;;;;;5053483;28;20076;-69
2022/06/24 02:47:29;;;;;;;35.10;10.00;;;22.60;99.90;;;;;;5052581;28;20063;-68
2022/06/24 02:50:40;;;;;;;25.20;9.95;;;22.40;99.90;;;;;;5053083;28;20411;-69
2022/06/24 02:53:44;;;;;;;34.83;9.83;;;22.30;99.90;;;;;;5053192;28;20395;-68
2022/06/24 02:56:48;;;;;;;32.78;9.75;;;22.20;99.90;;;;;;5052731;28;20498;-68
2022/06/24 02:59:52;;;;;;;36.58;9.75;;;22.20;99.90;;;;;;5053533;28;20052;-68
2022/06/24 03:02:56;;;;;;;33.83;9.70;;;22.10;99.90;;;;;;5053052;28;20052;-68
2022/06/24 03:06:00;;;;;;;25.17;9.27;;;21.90;99.90;;;;;;5052891;28;20051;-68
2022/06/24 03:09:04;;;;;;;27.00;8.85;;;21.90;99.90;;;;;;5052968;28;20043;-68
2022/06/24 03:12:08;;;;;;;26.23;9.90;;;21.80;99.90;;;;;;5052831;28;20040;-68
2022/06/24 03:15:12;;;;;;;25.30;9.88;;;21.80;99.90;;;;;;5052625;28;20044;-68
2022/06/24 03:18:18;;;;;;;25.38;10.55;;;21.80;99.90;;;;;;5052549;28;20056;-68
2022/06/24 03:21:21;;;;;;;26.17;9.60;;;21.80;99.90;;;;;;5052591;28;20102;-68
2022/06/24 03:24:25;;;;;;;25.80;9.90;;;21.70;99.90;;;;;;5052596;28;20052;-68
2022/06/24 03:27:29;;;;;;;26.33;9.10;;;21.60;99.90;;;;;;5052039;28;20048;-68
2022/06/24 03:30:33;;;;;;;21.58;9.55;;;21.60;99.90;;;;;;5052192;28;20052;-68
2022/06/24 03:33:37;;;;;;;26.45;9.95;;;21.50;99.90;;;;;;5052112;28;20047;-68
2022/06/24 03:36:41;;;;;;;31.23;10.60;;;21.50;99.90;;;;;;5052155;28;20048;-68
2022/06/24 03:39:45;;;;;;;33.42;12.23;;;21.50;99.90;;;;;;5052221;28;20048;-68
2022/06/24 03:42:49;;;;;;;31.02;10.80;;;21.50;99.90;;;;;;5051990;28;20120;-68
2022/06/24 03:46:03;;;;;;;25.17;10.65;;;21.50;99.90;;;;;;5052316;28;20048;-68
2022/06/24 03:49:07;;;;;;;19.70;9.70;;;21.50;99.90;;;;;;5052236;28;20055;-68
2022/06/24 03:52:12;;;;;;;29.52;10.43;;;21.50;99.90;;;;;;5052046;28;20036;-68
2022/06/24 03:55:16;;;;;;;35.00;11.40;;;21.50;99.90;;;;;;5051901;28;20507;-69
2022/06/24 03:58:20;;;;;;;27.20;11.57;;;21.60;99.90;;;;;;5051592;28;20064;-68
2022/06/24 04:01:24;;;;;;;24.05;10.57;;;21.60;99.90;;;;;;5052184;28;20055;-68
2022/06/24 04:04:27;;;;;;;24.38;10.55;;;21.60;99.90;;;;;;5051909;28;20051;-68
2022/06/24 04:07:31;;;;;;;37.10;12.45;;;21.70;99.90;;;;;;5051523;28;20056;-68
2022/06/24 04:10:38;;;;;;;25.38;10.50;;;21.70;99.90;;;;;;5051123;28;20400;-69
2022/06/24 04:13:43;;;;;;;25.80;10.60;;;21.80;99.90;;;;;;5051794;28;20051;-68
2022/06/24 04:16:46;;;;;;;25.05;10.60;;;21.90;99.90;;;;;;5051766;28;20040;-68
2022/06/24 04:19:52;;;;;;;32.03;9.70;;;21.90;99.90;;;;;;5051932;28;20044;-68
2022/06/24 04:22:56;;;;;;;25.33;10.68;;;22.10;99.90;;;;;;5051806;28;20388;-68
2022/06/24 04:26:00;;;;;;;23.20;10.60;;;22.10;99.90;;;;;;5051547;28;20060;-68
2022/06/24 04:29:04;;;;;;;23.25;9.85;;;22.30;99.90;;;;;;5051374;28;20407;-68
2022/06/24 04:32:08;;;;;;;20.38;9.93;;;22.40;99.90;;;;;;5047757;28;20052;-69
2022/06/24 04:35:13;;;;;;;31.92;10.77;;;22.50;99.90;;;;;;5052116;28;20048;-69
2022/06/24 04:38:17;;;;;;;24.33;10.60;;;22.70;99.90;;;;;;5051178;28;20044;-68
2022/06/24 04:41:21;;;;;;;29.65;10.90;;;22.80;99.90;;;;;;5051672;28;20044;-68
2022/06/24 04:44:26;;;;;;;24.13;10.10;;;22.90;99.90;;;;;;5051297;28;20056;-68
2022/06/24 04:47:30;;;;;;;18.15;9.30;;;23.10;99.90;;;;;;5049832;28;20044;-68
2022/06/24 04:50:33;;;;;;;21.00;9.35;;;23.20;99.90;;;;;;5051218;28;20060;-68
2022/06/24 04:53:37;;;;;;;25.23;9.80;;;23.30;99.90;;;;;;5051119;28;20048;-68
2022/06/24 04:56:41;;;;;;;31.15;11.05;;;23.30;99.90;;;;;;5050698;28;20523;-68
2022/06/24 04:59:45;;;;;;;30.13;9.43;;;23.30;99.90;;;;;;5050788;28;20040;-67
2022/06/24 05:02:49;;;;;;;18.65;9.15;;;23.40;99.90;;;;;;5050523;28;20043;-68
2022/06/24 05:05:53;;;;;;;24.95;10.23;;;23.50;99.90;;;;;;5050924;28;20040;-68
2022/06/24 05:08:57;;;;;;;23.75;9.68;;;23.50;99.90;;;;;;5050517;28;20498;-68
2022/06/24 05:12:01;;;;;;;21.13;8.85;;;23.60;99.90;;;;;;5050491;28;20044;-68
2022/06/24 05:15:06;;;;;;;29.40;10.38;;;23.70;99.90;;;;;;5050347;28;20395;-69
2022/06/24 05:18:10;;;;;;;33.78;10.20;;;23.80;99.90;;;;;;5050371;28;20047;-68
2022/06/24 05:21:13;;;;;;;37.60;10.13;;;24.00;99.90;;;;;;5050571;28;20060;-68
2022/06/24 05:24:18;;;;;;;23.25;10.30;;;23.80;99.90;;;;;;5050601;28;20383;-69
2022/06/24 05:27:21;;;;;;;27.40;9.63;;;23.60;99.90;;;;;;5049876;28;20039;-68
2022/06/24 05:30:25;;;;;;;23.55;9.55;;;23.70;99.90;;;;;;5050660;28;20044;-68
2022/06/24 05:33:30;;;;;;;22.10;9.57;;;24.10;99.90;;;;;;5051175;28;20040;-69
2022/06/24 05:36:34;;;;;;;27.38;9.55;;;25.60;99.90;;;;;;5050831;28;20550;-68
2022/06/24 05:39:38;;;;;;;22.73;8.02;;;26.30;99.90;;;;;;5050491;28;20052;-68
2022/06/24 05:42:42;;;;;;;21.80;7.60;;;26.70;99.90;;;;;;5050474;28;20356;-68
2022/06/24 05:45:47;;;;;;;24.10;8.88;;;26.60;99.90;;;;;;5050291;28;20044;-68
2022/06/24 05:48:50;;;;;;;23.15;8.10;;;27.40;99.90;;;;;;5050094;28;20072;-69
2022/06/24 05:51:54;;;;;;;19.73;7.35;;;28.70;99.90;;;;;;5049903;28;20044;-69
2022/06/24 05:55:04;;;;;;;20.85;6.85;;;29.80;99.90;;;;;;5050068;28;20036;-68
2022/06/24 05:58:08;;;;;;;27.02;6.85;;;30.60;99.90;;;;;;5049156;28;20048;-69
2022/06/24 06:01:12;;;;;;;21.08;7.32;;;31.10;99.90;;;;;;5050174;28;20405;-70
2022/06/24 06:04:17;;;;;;;23.00;6.68;;;31.10;99.90;;;;;;5050172;28;20056;-68
2022/06/24 06:07:20;;;;;;;22.50;6.65;;;30.50;99.90;;;;;;5049679;28;20487;-69
2022/06/24 06:10:24;;;;;;;17.50;6.00;;;30.90;99.90;;;;;;5049841;28;20043;-69
2022/06/24 06:13:29;;;;;;;21.42;8.38;;;30.50;99.90;;;;;;5050243;28;20044;-68
2022/06/24 06:16:33;;;;;;;22.40;7.13;;;29.50;99.90;;;;;;5048044;28;20044;-68
2022/06/24 06:19:37;;;;;;;19.13;6.00;;;30.30;99.90;;;;;;5045049;28;20044;-69
2022/06/24 06:22:41;;;;;;;21.60;6.38;;;31.20;99.90;;;;;;5048353;28;20388;-69
2022/06/24 06:25:45;;;;;;;21.45;6.07;;;30.80;99.90;;;;;;5045342;28;20499;-69
2022/06/24 06:28:49;;;;;;;24.05;6.35;;;30.60;99.90;;;;;;5042024;28;20036;-69
2022/06/24 06:31:53;;;;;;;18.73;6.22;;;30.80;99.90;;;;;;5046974;28;20036;-68
2022/06/24 06:34:57;;;;;;;17.92;6.43;;;31.40;99.90;;;;;;5048995;28;20040;-70
2022/06/24 06:38:01;;;;;;;17.98;6.22;;;30.90;99.90;;;;;;5049679;28;20048;-67
2022/06/24 06:41:05;;;;;;;24.35;6.47;;;30.20;99.90;;;;;;5050348;28;20043;-68
2022/06/24 06:44:09;;;;;;;19.35;6.50;;;29.50;99.90;;;;;;5049800;28;20048;-69
2022/06/24 06:47:15;;;;;;;21.33;6.78;;;29.00;99.90;;;;;;5049103;28;20043;-70
2022/06/24 06:50:19;;;;;;;21.98;6.57;;;28.70;99.90;;;;;;5050461;28;20387;-68
2022/06/24 06:53:24;;;;;;;17.63;6.25;;;28.80;99.90;;;;;;5035905;28;20039;-70
2022/06/24 06:56:27;;;;;;;21.92;6.68;;;28.80;99.90;;;;;;5040719;28;20048;-68
2022/06/24 06:59:31;;;;;;;17.52;6.07;;;28.50;99.90;;;;;;5046457;28;20048;-69
2022/06/24 07:02:39;;;;;;;21.95;6.85;;;28.70;99.90;;;;;;5040081;28;20053;-68
2022/06/24 07:05:44;;;;;;;19.65;6.22;;;28.80;99.90;;;;;;5046431;28;20044;-69
2022/06/24 07:08:47;;;;;;;16.92;5.78;;;28.80;99.90;;;;;;5050080;28;20040;-68
2022/06/24 07:11:53;;;;;;;24.13;6.85;;;28.20;99.90;;;;;;5052893;28;20487;-69
2022/06/24 07:14:57;;;;;;;27.90;8.05;;;28.70;99.90;;;;;;5042946;28;20045;-69
2022/06/24 07:18:01;;;;;;;19.23;5.68;;;28.90;99.90;;;;;;5047622;28;20040;-68
2022/06/24 07:21:05;;;;;;;18.38;5.60;;;30.30;99.90;;;;;;5048207;28;20052;-69
2022/06/24 07:24:09;;;;;;;23.50;5.10;;;31.50;99.90;;;;;;5050226;28;20651;-68
2022/06/24 07:27:13;;;;;;;21.13;5.25;;;31.80;98.70;;;;;;5045330;28;20360;-68
2022/06/24 07:30:17;;;;;;;20.90;5.75;;;31.80;97.40;;;;;;5046566;28;20048;-68
2022/06/24 07:33:23;;;;;;;18.27;5.13;;;32.20;97.00;;;;;;5052684;28;20048;-70
2022/06/24 07:36:27;;;;;;;18.08;5.07;;;33.00;96.70;;;;;;5049920;28;20067;-70
2022/06/24 07:39:31;;;;;;;26.42;5.70;;;32.70;95.90;;;;;;5047517;28;20040;-71
2022/06/24 07:42:36;;;;;;;20.08;4.85;;;30.80;96.00;;;;;;5048638;28;20052;-69
2022/06/24 07:45:40;;;;;;;18.80;4.70;;;30.50;97.10;;;;;;5050186;28;20383;-70
2022/06/24 07:48:44;;;;;;;26.77;5.57;;;30.10;98.00;;;;;;5050527;28;20052;-68
2022/06/24 07:51:48;;;;;;;15.35;4.78;;;29.80;98.10;;;;;;5033041;28;20035;-69
2022/06/24 07:56:56;;;;;;;17.65;5.00;;;30.30;97.50;;;;;;5043277;28;20384;-69
2022/06/24 07:58:16;;;;;;;14.10;5.05;;;32.20;96.10;;;;;;5051454;28;20454;-68
2022/06/24 08:01:20;;;;;;;18.52;4.53;;;34.10;94.20;;;;;;5052872;28;20040;-69
2022/06/24 08:04:27;;;;;;;21.00;4.68;;;34.70;92.00;;;;;;5052799;28;20051;-69
2022/06/24 08:07:31;;;;;;;18.15;4.78;;;34.70;92.00;;;;;;5051311;28;20044;-70
2022/06/24 08:10:35;;;;;;;13.95;4.35;;;36.40;91.10;;;;;;5052250;28;20047;-70
2022/06/24 08:13:40;;;;;;;15.57;3.58;;;37.40;89.50;;;;;;5052550;28;20064;-73
2022/06/24 08:16:44;;;;;;;17.50;4.50;;;38.10;86.00;;;;;;5050907;28;20044;-71
2022/06/24 08:19:48;;;;;;;15.48;4.38;;;37.50;84.90;;;;;;5042559;28;20048;-70
2022/06/24 08:22:52;;;;;;;15.82;4.72;;;36.60;85.30;;;;;;5050832;28;20048;-71
2022/06/24 08:25:57;;;;;;;15.68;3.60;;;36.80;86.90;;;;;;5047503;28;20056;-71
2022/06/24 08:29:00;;;;;;;18.08;4.07;;;37.40;83.80;;;;;;5051091;28;20052;-70
2022/06/24 08:32:04;;;;;;;15.85;4.03;;;38.30;83.30;;;;;;5051500;28;20447;-70
2022/06/24 08:35:09;;;;;;;13.05;3.10;;;39.50;81.10;;;;;;5047485;28;20052;-70
2022/06/24 08:38:15;;;;;;;15.70;3.15;;;40.30;78.40;;;;;;5051717;28;20040;-71
2022/06/24 08:41:25;;;;;;;21.33;4.40;;;40.20;77.70;;;;;;5047228;28;20048;-71
2022/06/24 08:44:29;;;;;;;10.93;2.67;;;39.50;78.00;;;;;;5046801;28;20071;-70
2022/06/24 08:47:34;;;;;;;15.35;4.13;;;38.80;78.70;;;;;;5047130;28;20384;-70
2022/06/24 08:50:37;;;;;;;18.27;3.53;;;37.90;79.40;;;;;;5051125;28;20047;-69
2022/06/24 08:53:43;;;;;;;14.23;3.42;;;35.20;80.80;;;;;;5050922;28;20053;-68
2022/06/24 08:56:48;;;;;;;15.80;3.85;;;34.40;84.80;;;;;;5051289;28;20047;-68
2022/06/24 08:59:51;;;;;;;14.25;2.97;;;37.30;81.30;;;;;;5047089;28;20060;-69
2022/06/24 09:02:56;;;;;;;18.38;3.42;;;40.10;78.00;;;;;;5046878;28;20175;-68
2022/06/24 09:06:11;;;;;;;13.00;2.95;;;42.20;75.20;;;;;;5045341;28;20035;-71
2022/06/24 09:09:24;;;;;;;14.65;3.65;;;43.40;73.00;;;;;;5041990;28;20040;-71
2022/06/24 09:12:29;;;;;;;14.68;3.35;;;43.20;71.50;;;;;;5044397;28;20044;-70
2022/06/24 09:15:33;;;;;;;15.20;3.72;;;43.90;71.70;;;;;;5042267;28;20048;-69
2022/06/24 09:18:38;;;;;;;11.88;3.17;;;44.50;69.90;;;;;;5042741;28;20064;-70
2022/06/24 09:21:43;;;;;;;23.50;3.78;;;42.90;70.00;;;;;;5048807;28;20404;-70
2022/06/24 09:24:48;;;;;;;16.58;3.53;;;43.70;70.10;;;;;;5046492;28;20064;-70
2022/06/24 09:27:52;;;;;;;17.83;3.30;;;42.40;69.80;;;;;;5047189;28;20064;-70
2022/06/24 09:31:04;;;;;;;13.07;3.63;;;44.80;69.00;;;;;;5046692;28;20048;-71
2022/06/24 09:34:17;;;;;;;18.85;3.55;;;45.70;68.30;;;;;;5046432;28;20051;-68
2022/06/24 09:37:45;;;;;;;13.57;3.83;;;42.90;68.40;;;;;;5044787;28;20036;-68
2022/06/24 09:40:58;;;;;;;19.02;3.45;;;42.70;69.10;;;;;;5045031;28;20040;-69
2022/06/24 09:44:02;;;;;;;16.70;3.90;;;42.80;69.20;;;;;;5047778;28;20039;-69
2022/06/24 09:47:06;;;;;;;15.35;3.20;;;41.80;69.50;;;;;;5040930;28;20051;-70
2022/06/24 09:50:10;;;;;;;15.32;3.50;;;40.90;69.50;;;;;;5040162;28;20040;-68
2022/06/24 09:53:15;;;;;;;9.85;2.97;;;40.50;70.50;;;;;;5039731;28;20028;-69
2022/06/24 09:56:20;;;;;;;14.98;3.92;;;39.10;71.80;;;;;;5045802;28;20044;-69
2022/06/24 10:02:50;;;;;;;11.43;3.50;;;41.30;70.80;;;;;;5050879;28;20502;-71
2022/06/24 10:06:01;;;;;;;18.08;3.47;;;41.60;69.60;;;;;;5048541;28;20065;-70
2022/06/24 10:09:06;;;;;;;11.18;2.95;;;42.70;68.30;;;;;;5049124;28;20056;-69
2022/06/24 10:12:11;;;;;;;10.27;3.00;;;39.30;69.40;;;;;;5048870;28;20040;-69
2022/06/24 10:15:18;;;;;;;11.32;2.90;;;39.60;70.70;;;;;;5044020;28;20470;-70
2022/06/24 10:18:49;;;;;;;17.55;3.70;;;37.60;72.50;;;;;;5047308;28;20364;-70
2022/06/24 10:21:53;;;;;;;10.65;3.25;;;40.60;71.00;;;;;;5047431;28;20052;-71
2022/06/24 10:24:57;;;;;;;18.02;3.55;;;40.60;68.90;;;;;;5049017;28;20055;-71
2022/06/24 10:28:01;;;;;;;14.38;3.28;;;37.40;70.60;;;;;;5045299;28;20052;-69
2022/06/24 10:31:05;;;;;;;16.15;3.40;;;37.00;72.10;;;;;;5049307;28;20044;-68
2022/06/24 10:34:10;;;;;;;11.43;3.25;;;39.60;71.00;;;;;;5047664;28;20040;-70
2022/06/24 10:37:14;;;;;;;12.45;3.13;;;41.70;68.20;;;;;;5033596;28;20044;-68
2022/06/24 10:40:24;;;;;;;14.32;3.17;;;38.30;69.40;;;;;;5038295;28;20380;-69
2022/06/24 10:43:43;;;;;;;13.80;3.15;;;36.30;71.30;;;;;;5049245;28;20483;-69
2022/06/24 10:46:47;;;;;;;17.38;3.28;;;37.60;71.60;;;;;;5052718;28;20202;-69
2022/06/24 10:50:13;;;;;;;15.57;3.00;;;39.40;69.10;;;;;;5051941;28;20040;-70
2022/06/24 10:53:14;;;;;;;21.55;4.25;;;39.60;67.30;;;;;;5050522;28;20056;-71
2022/06/24 10:56:38;;;;;;;17.85;3.28;;;37.00;70.60;;;;;;5049568;28;20040;-68
2022/06/24 10:59:42;;;;;;;19.30;3.25;;;36.50;71.90;;;;;;5052248;28;20044;-69
2022/06/24 11:02:51;;;;;;;15.60;3.53;;;36.80;70.50;;;;;;5049109;28;20043;-68
2022/06/24 11:05:55;;;;;;;17.23;2.95;;;35.60;72.00;;;;;;5049572;28;20052;-67
2022/06/24 11:09:07;;;;;;;13.10;3.08;;;36.50;72.00;;;;;;5050202;28;20044;-69
2022/06/24 11:12:31;;;;;;;14.95;3.50;;;34.80;70.50;;;;;;5041097;28;20049;-68
2022/06/24 11:15:42;;;;;;;14.93;3.10;;;36.00;71.20;;;;;;5044504;28;20507;-68
2022/06/24 11:18:50;;;;;;;12.07;2.88;;;35.70;70.00;;;;;;5050347;28;20048;-69
2022/06/24 11:21:54;;;;;;;9.18;3.00;;;35.40;71.70;;;;;;5051368;28;20052;-68
2022/06/24 11:25:02;;;;;;;12.75;3.25;;;36.80;72.10;;;;;;5048624;28;20396;-68
2022/06/24 11:28:24;;;;;;;14.32;3.20;;;35.00;72.30;;;;;;5048832;28;20060;-69
2022/06/24 11:31:30;;;;;;;13.88;3.42;;;35.30;72.90;;;;;;5046234;28;20040;-70
2022/06/24 11:34:36;;;;;;;14.40;3.25;;;35.40;72.00;;;;;;5040327;28;20048;-71
2022/06/24 11:37:40;;;;;;;15.30;3.90;;;34.80;72.80;;;;;;5047089;28;20044;-69
2022/06/24 11:40:45;;;;;;;19.83;3.53;;;36.10;71.70;;;;;;5047717;28;20064;-68
2022/06/24 11:43:50;;;;;;;15.95;3.17;;;35.80;71.40;;;;;;5044474;28;20052;-69
2022/06/24 11:46:54;;;;;;;14.50;3.05;;;35.80;70.80;;;;;;5049284;28;20048;-68
2022/06/24 11:49:58;;;;;;;16.08;2.97;;;34.80;70.90;;;;;;5043329;28;20056;-65
2022/06/24 11:53:04;;;;;;;13.45;3.65;;;34.90;73.20;;;;;;5051829;28;20487;-68
2022/06/24 11:56:08;;;;;;;15.90;3.10;;;35.10;72.40;;;;;;5050106;28;20039;-67
2022/06/24 11:59:12;;;;;;;14.80;3.08;;;35.10;71.30;;;;;;5045814;28;20031;-68
2022/06/24 12:02:17;;;;;;;20.38;3.13;;;34.40;73.00;;;;;;5049528;28;20059;-69
2022/06/24 12:05:25;;;;;;;13.10;3.10;;;34.30;73.90;;;;;;5052028;28;20399;-68
2022/06/24 12:08:29;;;;;;;15.52;2.70;;;35.70;72.20;;;;;;5058452;28;20044;-67
2022/06/24 12:11:41;;;;;;;15.90;3.17;;;36.30;71.50;;;;;;5049206;28;20056;-72
2022/06/24 12:14:55;;;;;;;18.75;3.65;;;36.20;72.80;;;;;;5051643;28;20036;-69
2022/06/24 12:17:59;;;;;;;13.93;3.08;;;34.60;73.50;;;;;;5048003;28;20379;-70
2022/06/24 12:21:04;;;;;;;17.55;3.53;;;34.30;74.30;;;;;;5045999;28;20044;-69
2022/06/24 12:24:24;;;;;;;13.80;3.17;;;34.40;74.30;;;;;;5043744;28;20044;-68
2022/06/24 12:27:35;;;;;;;13.10;3.05;;;33.40;73.90;;;;;;5043461;28;20052;-69
2022/06/24 12:30:39;;;;;;;22.83;4.18;;;34.10;75.60;;;;;;5046862;28;20044;-69
2022/06/24 12:33:44;;;;;;;16.70;3.50;;;35.10;72.60;;;;;;5051326;28;20036;-67
2022/06/24 12:37:05;;;;;;;14.30;3.33;;;35.70;71.00;;;;;;5049896;28;20044;-68
2022/06/24 12:40:21;;;;;;;17.60;3.95;;;36.70;70.00;;;;;;5047940;28;20043;-68
2022/06/24 12:43:26;;;;;;;21.42;3.95;;;37.60;69.20;;;;;;5050462;28;20052;-70
2022/06/24 12:46:33;;;;;;;15.52;3.10;;;35.30;70.60;;;;;;5042479;28;20115;-68
2022/06/24 12:53:07;;;;;;;17.23;3.20;;;35.60;72.10;;;;;;5049960;28;20056;-68
2022/06/24 12:56:11;;;;;;;19.00;2.85;;;36.60;70.50;;;;;;5044646;28;20052;-68
2022/06/24 12:59:16;;;;;;;22.60;3.55;;;35.40;69.80;;;;;;5049647;28;20047;-67
2022/06/24 13:02:20;;;;;;;16.50;3.33;;;35.00;71.10;;;;;;5046971;28;20372;-69
2022/06/24 13:05:26;;;;;;;15.23;2.85;;;35.60;70.70;;;;;;5046355;28;20494;-67
2022/06/24 13:08:30;;;;;;;13.05;3.33;;;35.90;70.90;;;;;;5044821;28;20483;-69
2022/06/24 13:11:35;;;;;;;16.73;3.33;;;36.00;69.70;;;;;;5043568;28;20047;-68
2022/06/24 13:14:39;;;;;;;15.90;2.97;;;35.70;69.10;;;;;;5045340;28;20036;-68
2022/06/24 13:17:43;;;;;;;17.23;3.70;;;36.30;69.70;;;;;;5046919;28;20051;-69
2022/06/24 13:20:47;;;;;;;16.40;8.65;;;35.10;69.30;;;;;;5047080;28;20040;-69
2022/06/24 13:23:51;;;;;;;15.13;3.33;;;34.20;70.90;;;;;;5048053;28;21436;-69
2022/06/24 13:26:55;;;;;;;12.85;3.08;;;33.80;70.90;;;;;;5047802;28;20047;-70
2022/06/24 13:29:59;;;;;;;14.93;3.63;;;33.40;72.10;;;;;;5046371;28;20052;-68
2022/06/24 13:33:03;;;;;;;14.68;3.25;;;34.20;72.20;;;;;;5048317;28;20380;-68
2022/06/24 13:36:07;;;;;;;14.63;3.92;;;34.10;71.90;;;;;;5042011;28;20040;-67
2022/06/24 13:39:12;;;;;;;14.82;3.97;;;35.20;71.60;;;;;;5049025;28;20521;-69
2022/06/24 13:42:16;;;;;;;17.98;3.83;;;34.40;71.40;;;;;;5048369;28;20047;-69
2022/06/24 13:45:21;;;;;;;12.07;3.08;;;34.10;72.40;;;;;;5042350;28;20494;-68
2022/06/24 13:48:25;;;;;;;13.60;3.03;;;34.00;72.80;;;;;;5048353;28;20056;-69
2022/06/24 13:51:30;;;;;;;13.80;3.47;;;34.60;72.80;;;;;;5045804;28;20048;-68
2022/06/24 13:54:34;;;;;;;15.30;2.78;;;35.70;71.80;;;;;;5043831;28;20575;-68
2022/06/24 13:57:38;;;;;;;13.70;2.75;;;36.60;70.70;;;;;;5045551;28;20040;-70
2022/06/24 14:00:42;;;;;;;14.70;3.17;;;36.10;70.40;;;;;;5045522;28;20048;-68
2022/06/24 14:03:47;;;;;;;16.08;3.30;;;35.00;71.30;;;;;;5047197;28;20064;-66
2022/06/24 14:06:51;;;;;;;19.83;3.75;;;35.60;70.60;;;;;;5047979;28;20035;-68
2022/06/24 14:09:55;;;;;;;16.55;3.17;;;34.50;73.00;;;;;;5047801;28;20501;-69
2022/06/24 14:13:01;;;;;;;20.38;3.67;;;34.40;72.40;;;;;;5046857;28;20044;-69
2022/06/24 14:16:05;;;;;;;12.38;3.70;;;35.10;73.00;;;;;;5046662;28;20570;-69
2022/06/24 14:19:09;;;;;;;18.88;3.72;;;34.80;71.50;;;;;;5049530;28;20052;-68
2022/06/24 14:22:13;;;;;;;19.08;3.80;;;34.50;72.70;;;;;;5051814;28;20052;-67
2022/06/24 14:25:17;;;;;;;13.05;3.35;;;34.40;72.10;;;;;;5050514;28;20047;-68
2022/06/24 14:28:22;;;;;;;16.23;3.55;;;34.40;73.50;;;;;;5047862;28;20898;-67
2022/06/24 14:31:27;;;;;;;11.73;2.80;;;34.60;74.40;;;;;;5046874;28;20210;-69
2022/06/24 14:34:31;;;;;;;10.82;3.03;;;34.60;73.10;;;;;;5047532;28;20043;-68
2022/06/24 14:40:58;;;;;;;23.10;4.45;;;34.00;73.40;;;;;;5049819;28;20052;-68
2022/06/24 14:44:02;;;;;;;15.63;3.60;;;34.20;73.40;;;;;;5050594;28;20387;-69
2022/06/24 14:47:06;;;;;;;20.85;4.60;;;34.70;73.20;;;;;;5052467;28;20048;-68
2022/06/24 14:50:10;;;;;;;16.75;4.00;;;33.90;73.20;;;;;;5049842;28;20052;-69
2022/06/24 14:53:14;;;;;;;12.40;3.28;;;33.70;74.20;;;;;;5049540;28;20051;-67
2022/06/24 14:56:18;;;;;;;23.08;4.07;;;33.80;74.40;;;;;;5045093;28;20040;-68
2022/06/24 14:59:22;;;;;;;12.35;3.42;;;33.40;73.60;;;;;;5049811;28;20048;-70
2022/06/24 15:02:26;;;;;;;20.38;3.75;;;33.50;74.30;;;;;;5049230;28;20047;-69
2022/06/24 15:05:30;;;;;;;19.77;3.80;;;33.60;73.70;;;;;;5050823;28;20044;-67
2022/06/24 15:08:35;;;;;;;12.15;3.28;;;33.30;73.30;;;;;;5052662;28;20502;-68
2022/06/24 15:11:39;;;;;;;15.00;3.13;;;33.50;73.70;;;;;;5052361;28;20482;-68
2022/06/24 15:14:45;;;;;;;12.25;3.13;;;34.10;73.40;;;;;;5046525;28;20048;-68
2022/06/24 15:17:49;;;;;;;10.48;2.75;;;34.80;72.40;;;;;;5051965;28;20040;-68
2022/06/24 15:20:53;;;;;;;19.33;2.83;;;35.00;72.30;;;;;;5051316;28;20040;-69
2022/06/24 15:23:57;;;;;;;10.95;2.50;;;35.30;72.50;;;;;;5052937;28;20571;-68
2022/06/24 15:27:01;;;;;;;12.93;2.67;;;35.30;73.10;;;;;;5053054;28;20052;-68
2022/06/24 15:30:05;;;;;;;21.08;3.63;;;35.50;72.90;;;;;;5047180;28;20048;-69
2022/06/24 15:33:10;;;;;;;21.90;3.15;;;35.00;73.00;;;;;;5048160;28;20044;-68
2022/06/24 15:36:16;;;;;;;17.88;2.40;;;35.20;74.10;;;;;;5049587;28;20071;-68
2022/06/24 15:39:20;;;;;;;17.00;3.10;;;35.30;74.30;;;;;;5050589;28;20368;-69
2022/06/24 15:42:25;;;;;;;13.75;3.30;;;35.20;74.90;;;;;;5044413;28;20047;-68
2022/06/24 15:45:29;;;;;;;17.00;3.20;;;35.00;75.10;;;;;;5047580;28;20045;-68
2022/06/24 15:48:33;;;;;;;16.67;3.30;;;34.80;75.90;;;;;;5051767;28;20047;-69
2022/06/24 15:51:37;;;;;;;10.60;3.17;;;34.40;76.10;;;;;;5052590;28;20132;-69
2022/06/24 15:54:41;;;;;;;13.80;3.53;;;33.90;77.00;;;;;;5052200;28;20040;-68
2022/06/24 15:57:45;;;;;;;19.67;3.60;;;33.60;77.90;;;;;;5032073;28;20036;-68
2022/06/24 16:00:50;;;;;;;28.15;4.00;;;33.50;78.70;;;;;;5032320;28;20044;-69
2022/06/24 16:03:54;;;;;;;22.13;3.65;;;33.50;79.50;;;;;;5032553;28;20056;-69
2022/06/24 16:06:58;;;;;;;17.95;2.88;;;33.50;79.40;;;;;;5045185;28;20052;-67